Hauptseite
METAR-TAF:

METAR-TAF

Flughäfen :

Flughafen Bahrain

Bahrain, Bahrain

Breite: 26-16N, Länge: 050-39E, Höhe: 2 m

Beobachtung

Neuester Wetterbericht von vor 31 Minuten, um 20:30 UTC
Wind 9 kt aus Nord
Temperatur 25°C
Luftfeuchtigkeit 69%
Luftdruck 1007 hPa
Sichtweite 10 km oder mehr
keine Wolken unter 1500 m und keine Kumulonimbus oder Gewitterwolken

METAR: OBBI 202030Z 35009KT CAVOK 25/19 Q1007 NOSIG

Zeit: 00:01 (21:01 UTC)

Prognose

Neuester Wetterbericht von vor 4 Stunden und 1 Minuten, um 17:00 UTC
Gültige Prognose vom 20 um 18 UTC bis 22 um 00 UTC
Wind 12 kt aus Nord
Sichtweite: 8000 m
Übergehend zu
vom 21 um 16 UTC bis 21 um 18 UTC
Wind 8 kt aus Ost/Südost

TAF: OBBI 201700Z 2018/2200 36012KT 8000 NSC BECMG 2116/2118 12008KT

Wetterbeobachtungen und Prognosen von mehr als 4000 Flughäfen (METAR und TAF Bericht).

Die verfügbaren Stationen werden durch gelbe und rote Markierungen auf der Karte dargestellt.

Führen Sie die Maus auf sie, um den Namen der Station zu sehen.

Darauf klicken, um die Beobachtung von Wetterbeobachtungen und Prognosen zu sehen.

Um die Karte zu ändern : klicken Sie auf den grünen Tasten mit einem schwarzen Kreuz Zum Vergrößern, auf den grünen Button mit einem Gedankenstrich zu verkleinern, oder auf die grünen Pfeile für benachbarte Karten.


METAR-TAF: